Time;durP1;ratioP1;P1;durP2;ratioP2;P2;SDS_P1;SDS_P2;PMS_P1;PMS_P2;Temp;Humidity;BMP_temperature;BMP_pressure;BME280_temperature;BME280_humidity;BME280_pressure;Samples;Min_cycle;Max_cycle;Signal;HPM_P1;HPM_P2
2022/05/16 00:00:49;;;;;;;7.07;2.70;;;15.50;74.60;;;;;;4996505;28;20019;-70
2022/05/16 00:03:15;;;;;;;6.15;2.72;;;15.50;74.60;;;;;;5004158;28;20153;-70
2022/05/16 00:05:41;;;;;;;5.78;2.78;;;15.40;74.70;;;;;;5010113;28;20030;-70
2022/05/16 00:08:06;;;;;;;6.30;2.45;;;15.40;74.80;;;;;;5011109;28;20050;-69
2022/05/16 00:10:33;;;;;;;6.90;2.67;;;15.40;75.10;;;;;;5009425;28;20097;-69
2022/05/16 00:13:00;;;;;;;8.93;2.80;;;15.40;75.00;;;;;;5011344;28;20390;-69
2022/05/16 00:15:26;;;;;;;7.40;2.92;;;15.40;75.10;;;;;;5006623;28;20045;-70
2022/05/16 00:17:52;;;;;;;9.05;2.78;;;15.30;75.20;;;;;;5011455;28;20068;-69
2022/05/16 00:20:18;;;;;;;5.80;2.70;;;15.30;75.60;;;;;;5013003;28;20046;-69
2022/05/16 00:22:43;;;;;;;5.72;2.90;;;15.30;75.50;;;;;;5014806;28;20022;-69
2022/05/16 00:25:11;;;;;;;5.85;2.83;;;15.20;75.50;;;;;;5006345;28;20060;-69
2022/05/16 00:27:37;;;;;;;5.72;2.67;;;15.30;75.80;;;;;;4998977;28;20085;-69
2022/05/16 00:30:10;;;;;;;6.85;3.20;;;15.20;75.70;;;;;;4995866;28;20030;-70
2022/05/16 00:32:36;;;;;;;6.43;3.22;;;15.20;75.90;;;;;;4994917;28;20373;-71
2022/05/16 00:35:03;;;;;;;5.35;3.80;;;15.20;76.00;;;;;;5001248;28;20038;-70
2022/05/16 00:37:29;;;;;;;9.88;3.85;;;15.20;76.10;;;;;;5014866;28;20382;-69
2022/05/16 00:39:54;;;;;;;8.57;3.83;;;15.10;76.10;;;;;;5012437;28;20044;-69
2022/05/16 00:42:19;;;;;;;10.20;4.28;;;15.10;76.20;;;;;;5014036;28;20083;-69
2022/05/16 00:44:45;;;;;;;7.15;4.20;;;15.10;76.40;;;;;;5012314;28;20030;-70
2022/05/16 00:47:11;;;;;;;6.68;4.25;;;15.10;76.30;;;;;;5013144;28;20024;-69
2022/05/16 00:49:41;;;;;;;7.75;4.50;;;15.10;76.60;;;;;;5012856;28;20030;-69
2022/05/16 00:52:30;;;;;;;6.53;4.07;;;15.00;76.50;;;;;;5014371;28;20052;-69
2022/05/16 00:55:02;;;;;;;11.27;4.40;;;15.00;76.70;;;;;;5007357;28;20042;-69
2022/05/16 00:57:44;;;;;;;8.27;3.58;;;15.00;76.70;;;;;;4997779;28;20045;-69
2022/05/16 01:00:12;;;;;;;7.45;3.67;;;15.00;76.70;;;;;;5011546;28;20084;-69
2022/05/16 01:05:26;;;;;;;6.43;3.15;;;14.90;76.60;;;;;;5012817;28;20037;-69
2022/05/16 01:07:52;;;;;;;11.23;3.83;;;14.90;76.70;;;;;;5013837;28;20045;-69
2022/05/16 01:10:20;;;;;;;6.15;3.15;;;14.90;76.80;;;;;;5004360;28;20037;-69
2022/05/16 01:12:50;;;;;;;8.57;3.47;;;14.90;76.90;;;;;;4994155;28;20097;-69
2022/05/16 01:15:46;;;;;;;5.22;2.78;;;14.90;77.00;;;;;;5002581;28;20073;-69
2022/05/16 01:18:14;;;;;;;9.15;3.25;;;14.80;77.10;;;;;;5013957;28;20080;-69
2022/05/16 01:20:52;;;;;;;4.55;2.70;;;14.80;76.90;;;;;;5012075;28;20040;-69
2022/05/16 01:23:22;;;;;;;5.47;3.05;;;14.80;77.00;;;;;;5013776;28;20029;-69
2022/05/16 01:25:49;;;;;;;7.15;3.00;;;14.80;77.10;;;;;;5012329;28;20069;-69
2022/05/16 01:28:19;;;;;;;7.43;2.85;;;14.80;77.20;;;;;;5013386;28;20029;-69
2022/05/16 01:30:46;;;;;;;7.97;3.47;;;14.80;77.30;;;;;;5008918;28;20064;-69
2022/05/16 01:33:16;;;;;;;6.05;3.15;;;14.70;77.30;;;;;;5012960;28;20587;-69
2022/05/16 01:35:42;;;;;;;4.70;2.78;;;14.70;77.40;;;;;;5012609;28;20056;-68
2022/05/16 01:38:22;;;;;;;5.85;2.83;;;14.70;77.40;;;;;;5013278;28;20025;-68
2022/05/16 01:40:50;;;;;;;8.45;3.05;;;14.70;77.40;;;;;;5011979;28;20033;-68
2022/05/16 01:43:17;;;;;;;6.75;2.78;;;14.70;77.50;;;;;;5013731;28;20022;-68
2022/05/16 01:45:44;;;;;;;6.03;2.92;;;14.60;77.50;;;;;;5003340;28;20039;-68
2022/05/16 01:48:11;;;;;;;6.97;2.95;;;14.60;77.60;;;;;;5007789;28;20096;-68
2022/05/16 01:50:36;;;;;;;9.43;2.85;;;14.60;77.70;;;;;;5011646;28;20037;-68
2022/05/16 01:53:02;;;;;;;7.22;3.60;;;14.50;77.70;;;;;;5012107;28;20030;-69
2022/05/16 01:55:27;;;;;;;6.78;3.47;;;14.50;77.70;;;;;;5004559;28;20049;-69
2022/05/16 01:57:53;;;;;;;5.93;3.00;;;14.50;78.20;;;;;;5005591;28;20061;-69
2022/05/16 02:00:19;;;;;;;7.28;2.88;;;14.50;77.80;;;;;;5013114;28;20030;-68
2022/05/16 02:02:45;;;;;;;9.10;3.22;;;14.40;77.90;;;;;;5000828;28;20027;-69
2022/05/16 02:05:14;;;;;;;6.30;3.00;;;14.40;77.90;;;;;;5011888;28;20516;-69
2022/05/16 02:07:39;;;;;;;6.22;2.85;;;14.40;78.00;;;;;;5011742;28;20124;-69
2022/05/16 02:10:10;;;;;;;6.25;2.70;;;14.40;78.10;;;;;;5013109;28;20105;-69
2022/05/16 02:12:36;;;;;;;6.60;2.80;;;14.40;78.20;;;;;;5011698;28;20040;-69
2022/05/16 02:15:04;;;;;;;4.72;2.80;;;14.40;78.10;;;;;;5012546;28;20453;-69
2022/05/16 02:17:29;;;;;;;4.80;2.65;;;14.40;78.20;;;;;;5004479;28;20019;-69
2022/05/16 02:19:55;;;;;;;8.63;2.80;;;14.40;78.20;;;;;;5004902;28;20034;-72
2022/05/16 02:25:05;;;;;;;9.68;4.35;;;14.40;78.40;;;;;;4993228;28;20038;-72
2022/05/16 02:27:31;;;;;;;12.80;4.32;;;14.30;78.40;;;;;;5002533;28;20030;-72
2022/05/16 02:29:57;;;;;;;10.02;6.07;;;14.30;78.40;;;;;;5012168;28;20378;-73
2022/05/16 02:32:23;;;;;;;16.52;7.50;;;14.30;78.50;;;;;;5002769;28;20041;-72
2022/05/16 02:34:49;;;;;;;12.55;6.07;;;14.30;78.50;;;;;;4998601;28;20041;-72
2022/05/16 02:37:15;;;;;;;11.50;6.13;;;14.20;78.50;;;;;;5010640;28;20092;-72
2022/05/16 02:39:44;;;;;;;11.90;5.55;;;14.20;78.50;;;;;;5012357;28;20394;-72
2022/05/16 02:42:10;;;;;;;11.48;3.95;;;14.20;78.50;;;;;;5009621;28;20087;-72
2022/05/16 02:44:38;;;;;;;9.88;4.07;;;14.20;78.50;;;;;;5012038;28;20501;-72
2022/05/16 02:47:05;;;;;;;6.30;3.58;;;14.20;78.40;;;;;;5007116;28;20587;-72
2022/05/16 02:49:31;;;;;;;7.15;3.05;;;14.10;78.50;;;;;;5012398;28;20034;-72
2022/05/16 02:51:57;;;;;;;6.50;3.40;;;14.10;78.50;;;;;;5009306;28;20103;-73
2022/05/16 02:54:22;;;;;;;7.75;3.53;;;14.10;78.60;;;;;;5011922;28;20553;-73
2022/05/16 02:56:48;;;;;;;6.45;3.05;;;14.10;79.20;;;;;;5006127;28;20038;-73
2022/05/16 02:59:13;;;;;;;6.60;3.10;;;14.10;78.80;;;;;;4992454;28;20117;-73
2022/05/16 03:01:38;;;;;;;7.65;3.30;;;14.10;78.80;;;;;;4994670;28;20168;-72
2022/05/16 03:04:05;;;;;;;7.68;2.75;;;14.10;78.90;;;;;;5011961;28;20021;-73
2022/05/16 03:06:30;;;;;;;7.43;3.28;;;14.10;79.00;;;;;;5009356;28;20046;-73
2022/05/16 03:08:56;;;;;;;8.30;2.67;;;14.00;79.00;;;;;;4992125;28;20074;-72
2022/05/16 03:11:22;;;;;;;6.75;3.10;;;14.00;79.00;;;;;;4992846;28;20029;-73
2022/05/16 03:13:48;;;;;;;8.02;3.42;;;14.00;79.10;;;;;;5011574;28;20065;-73
2022/05/16 03:16:14;;;;;;;7.45;3.20;;;14.00;79.20;;;;;;5011065;28;20084;-73
2022/05/16 03:18:39;;;;;;;5.07;2.67;;;14.00;79.10;;;;;;4992319;28;20030;-73
2022/05/16 03:21:06;;;;;;;7.78;3.30;;;14.00;79.10;;;;;;4992484;28;20142;-73
2022/05/16 03:23:31;;;;;;;6.28;2.63;;;14.00;79.30;;;;;;4990608;28;20088;-74
2022/05/16 03:25:57;;;;;;;4.03;2.60;;;14.00;79.30;;;;;;4992166;28;20042;-72
2022/05/16 03:28:23;;;;;;;5.75;2.90;;;14.00;79.30;;;;;;5009660;28;20026;-74
2022/05/16 03:30:48;;;;;;;5.68;2.83;;;14.00;79.30;;;;;;5011767;28;20113;-73
2022/05/16 03:33:15;;;;;;;7.72;2.78;;;14.00;79.40;;;;;;5010305;28;20030;-73
2022/05/16 03:35:40;;;;;;;5.93;3.03;;;14.00;79.60;;;;;;5011738;28;20041;-73
2022/05/16 03:38:06;;;;;;;6.95;3.00;;;14.00;79.60;;;;;;4996071;28;20026;-73
2022/05/16 03:40:45;;;;;;;6.88;2.90;;;14.00;79.60;;;;;;4991892;28;20064;-73
2022/05/16 03:43:12;;;;;;;4.93;2.83;;;14.00;79.70;;;;;;5006990;28;20108;-72
2022/05/16 03:45:38;;;;;;;7.97;3.83;;;14.00;79.60;;;;;;5010749;28;20381;-73
2022/05/16 03:48:05;;;;;;;6.35;3.10;;;14.00;79.50;;;;;;5011253;28;20036;-73
2022/05/16 03:50:30;;;;;;;8.38;3.85;;;14.10;79.70;;;;;;5011710;28;20126;-74
2022/05/16 03:52:59;;;;;;;5.43;2.22;;;14.00;79.70;;;;;;5011289;28;20160;-73
2022/05/16 03:55:26;;;;;;;9.05;3.22;;;14.00;79.80;;;;;;5011240;28;20080;-74
2022/05/16 03:57:52;;;;;;;8.45;2.97;;;14.10;79.80;;;;;;5013702;28;20421;-74
2022/05/16 04:00:18;;;;;;;7.78;3.75;;;14.10;79.90;;;;;;5015579;28;20033;-75
2022/05/16 04:02:44;;;;;;;7.45;3.08;;;14.10;79.80;;;;;;5006178;28;20049;-75
2022/05/16 04:05:15;;;;;;;6.22;2.95;;;14.10;79.90;;;;;;5015427;28;20072;-74
2022/05/16 04:07:41;;;;;;;5.90;2.47;;;14.10;79.80;;;;;;5002547;28;20133;-74
2022/05/16 04:10:07;;;;;;;8.55;2.88;;;14.10;79.90;;;;;;4995933;28;20044;-74
2022/05/16 04:12:33;;;;;;;5.68;2.47;;;14.00;79.80;;;;;;5010068;28;20038;-74
2022/05/16 04:14:58;;;;;;;7.10;2.92;;;14.10;79.80;;;;;;4999374;28;20434;-74
2022/05/16 04:17:24;;;;;;;7.28;2.50;;;14.10;79.90;;;;;;4996172;28;20644;-77
2022/05/16 04:19:49;;;;;;;8.38;3.42;;;14.10;80.00;;;;;;4995692;28;20054;-76
2022/05/16 04:22:15;;;;;;;5.85;2.50;;;14.10;80.00;;;;;;5003312;28;20113;-76
2022/05/16 04:24:40;;;;;;;8.23;3.28;;;14.10;80.10;;;;;;5014800;28;20022;-77
2022/05/16 04:27:06;;;;;;;6.28;2.92;;;14.10;80.00;;;;;;5007715;28;20027;-76
2022/05/16 04:29:31;;;;;;;6.28;3.55;;;14.20;80.10;;;;;;4995242;28;20026;-76
2022/05/16 04:31:57;;;;;;;4.32;3.00;;;14.20;79.90;;;;;;4999290;28;20396;-76
2022/05/16 04:34:22;;;;;;;6.68;3.63;;;14.20;80.00;;;;;;5014750;28;20024;-75
2022/05/16 04:36:48;;;;;;;8.10;3.05;;;14.30;79.90;;;;;;5012726;28;20045;-75
2022/05/16 04:39:13;;;;;;;5.40;3.17;;;14.30;79.70;;;;;;5013626;28;20018;-76
2022/05/16 04:44:23;;;;;;;5.88;2.60;;;14.40;79.70;;;;;;5014619;28;20065;-74
2022/05/16 04:46:48;;;;;;;7.22;3.30;;;14.40;79.70;;;;;;5009398;28;20073;-74
2022/05/16 04:49:14;;;;;;;7.80;3.28;;;14.50;79.70;;;;;;5003749;28;20030;-73
2022/05/16 04:51:39;;;;;;;7.10;2.65;;;14.50;79.30;;;;;;5013063;28;20022;-74
2022/05/16 04:54:05;;;;;;;5.57;2.88;;;14.50;79.10;;;;;;5014048;28;20033;-73
2022/05/16 04:56:31;;;;;;;5.50;3.03;;;14.60;78.70;;;;;;5011152;28;20038;-73
2022/05/16 04:58:57;;;;;;;6.38;3.40;;;14.60;78.70;;;;;;4994845;28;20030;-72
2022/05/16 05:01:24;;;;;;;7.43;3.42;;;14.60;78.90;;;;;;4995815;28;20077;-73
2022/05/16 05:03:49;;;;;;;6.70;3.08;;;14.60;78.60;;;;;;5009185;28;20103;-72
2022/05/16 05:06:15;;;;;;;9.20;3.40;;;14.70;78.70;;;;;;5012936;28;20123;-73
2022/05/16 05:08:40;;;;;;;7.32;2.75;;;14.70;78.40;;;;;;4995890;28;20043;-73
2022/05/16 05:16:36;;;;;;;11.07;2.80;;;14.80;78.10;;;;;;4998158;28;20053;-72
2022/05/16 05:19:01;;;;;;;7.03;3.13;;;14.90;78.00;;;;;;4994635;28;20288;-72
2022/05/16 05:21:27;;;;;;;7.13;2.75;;;14.90;78.10;;;;;;4994591;28;20018;-74
2022/05/16 05:23:55;;;;;;;8.32;3.53;;;15.00;78.10;;;;;;4994163;28;20390;-73
2022/05/16 05:26:20;;;;;;;5.57;2.97;;;15.00;78.00;;;;;;4994711;28;20073;-72
2022/05/16 05:28:46;;;;;;;6.35;2.88;;;15.00;78.10;;;;;;4994188;28;20434;-73
2022/05/16 05:31:14;;;;;;;7.13;3.13;;;15.10;77.90;;;;;;4999761;28;20026;-73
2022/05/16 05:33:39;;;;;;;5.47;3.03;;;15.10;77.90;;;;;;5012731;28;20482;-73
2022/05/16 05:36:05;;;;;;;5.28;3.03;;;15.20;77.80;;;;;;5013923;28;20076;-74
2022/05/16 05:38:31;;;;;;;6.57;2.83;;;15.30;77.60;;;;;;5010926;28;20060;-73
2022/05/16 05:40:57;;;;;;;8.63;3.13;;;15.30;77.30;;;;;;5011624;28;20108;-72
2022/05/16 05:43:22;;;;;;;7.40;2.70;;;15.30;77.20;;;;;;5010598;28;20557;-75
2022/05/16 05:45:48;;;;;;;6.18;2.72;;;15.40;77.30;;;;;;5012167;28;20029;-74
2022/05/16 05:48:13;;;;;;;7.75;2.90;;;15.50;77.50;;;;;;4996018;28;20541;-74
2022/05/16 05:50:39;;;;;;;5.78;3.20;;;15.60;77.30;;;;;;4994049;28;20038;-74
2022/05/16 05:53:04;;;;;;;6.25;2.85;;;15.70;77.00;;;;;;5008388;28;20036;-74
2022/05/16 05:55:30;;;;;;;6.53;2.67;;;15.80;76.80;;;;;;5011212;28;20366;-74
2022/05/16 05:57:55;;;;;;;7.30;2.47;;;15.80;76.80;;;;;;5011773;28;20026;-74
2022/05/16 06:00:21;;;;;;;5.90;2.30;;;16.00;76.70;;;;;;5013324;28;20037;-74
2022/05/16 06:02:47;;;;;;;6.68;2.40;;;16.00;76.10;;;;;;5010947;28;20481;-74
2022/05/16 06:05:16;;;;;;;5.63;3.17;;;16.10;75.70;;;;;;5012587;28;20037;-73
2022/05/16 06:07:42;;;;;;;7.03;2.63;;;16.20;75.20;;;;;;5009847;28;20037;-75
2022/05/16 06:10:08;;;;;;;7.95;2.50;;;16.20;74.80;;;;;;5013695;28;20034;-80
2022/05/16 06:12:34;;;;;;;9.13;2.80;;;16.30;74.60;;;;;;5002671;28;20026;-72
2022/05/16 06:15:00;;;;;;;8.65;3.10;;;16.30;74.60;;;;;;5006597;28;20033;-70
2022/05/16 06:17:25;;;;;;;8.88;3.00;;;16.40;74.10;;;;;;4997281;28;20026;-71
2022/05/16 06:19:51;;;;;;;6.40;2.50;;;16.50;74.20;;;;;;4999389;28;20033;-70
2022/05/16 06:22:17;;;;;;;6.82;2.53;;;16.50;74.30;;;;;;5010101;28;20033;-70
2022/05/16 06:27:29;;;;;;;6.93;2.33;;;16.70;74.10;;;;;;5001049;28;20085;-70
2022/05/16 06:29:55;;;;;;;5.78;2.28;;;16.80;73.10;;;;;;5017070;28;20042;-71
2022/05/16 06:32:21;;;;;;;5.53;2.53;;;16.80;73.40;;;;;;5006603;28;20054;-71
2022/05/16 06:34:47;;;;;;;6.60;2.75;;;16.90;73.60;;;;;;5022401;28;20049;-71
2022/05/16 06:37:13;;;;;;;7.07;2.30;;;17.00;73.30;;;;;;5006800;28;20030;-73
2022/05/16 06:39:38;;;;;;;5.63;2.80;;;17.10;73.10;;;;;;5030696;28;20548;-71
2022/05/16 06:42:04;;;;;;;10.15;2.83;;;17.20;73.00;;;;;;5006175;28;20019;-72
2022/05/16 06:44:30;;;;;;;5.95;2.63;;;17.30;72.40;;;;;;5036973;28;20029;-72
2022/05/16 06:46:55;;;;;;;8.15;2.50;;;17.30;72.50;;;;;;5022269;28;20030;-72
2022/05/16 06:49:21;;;;;;;6.85;2.75;;;17.40;72.80;;;;;;5023511;28;20026;-72
2022/05/16 06:51:47;;;;;;;6.05;2.65;;;17.50;72.20;;;;;;5016839;28;20042;-71
2022/05/16 06:54:12;;;;;;;6.18;2.22;;;17.50;71.80;;;;;;5009152;28;20029;-72
2022/05/16 06:56:38;;;;;;;5.35;2.60;;;17.60;71.90;;;;;;5010934;28;20121;-72
2022/05/16 06:59:03;;;;;;;5.15;2.10;;;17.70;71.40;;;;;;5015349;28;20117;-73
2022/05/16 07:01:29;;;;;;;4.65;2.67;;;17.70;71.20;;;;;;5008538;28;20053;-73
2022/05/16 07:03:54;;;;;;;7.43;2.65;;;17.80;71.20;;;;;;5008035;28;20026;-74
2022/05/16 07:06:20;;;;;;;6.30;2.70;;;17.90;71.30;;;;;;5001685;28;20030;-74
2022/05/16 07:08:46;;;;;;;7.85;2.92;;;18.00;71.30;;;;;;4996887;28;20081;-70
2022/05/16 07:11:11;;;;;;;8.35;3.03;;;18.00;71.00;;;;;;5009484;28;20025;-70
2022/05/16 07:13:37;;;;;;;5.65;2.33;;;18.10;70.80;;;;;;4996909;28;20026;-69
2022/05/16 07:16:03;;;;;;;6.10;2.13;;;18.20;70.60;;;;;;5002541;28;20482;-70
2022/05/16 07:18:28;;;;;;;7.68;2.60;;;18.30;70.30;;;;;;4991716;28;20417;-69
2022/05/16 07:20:55;;;;;;;7.22;2.85;;;18.40;70.30;;;;;;5001434;28;20133;-70
2022/05/16 07:23:21;;;;;;;9.88;2.75;;;18.50;70.20;;;;;;5014066;28;20042;-69
2022/05/16 07:28:31;;;;;;;5.65;2.83;;;18.60;69.30;;;;;;5013897;28;20084;-70
2022/05/16 07:30:57;;;;;;;6.28;2.40;;;18.70;69.30;;;;;;5009736;28;20034;-70
2022/05/16 07:33:22;;;;;;;6.28;2.38;;;18.70;69.30;;;;;;5014635;28;20084;-69
2022/05/16 07:35:50;;;;;;;6.90;2.55;;;18.80;68.70;;;;;;5008956;28;20150;-69
2022/05/16 07:38:20;;;;;;;9.00;2.70;;;18.90;68.30;;;;;;5009278;28;20105;-69
2022/05/16 07:40:51;;;;;;;7.38;2.60;;;19.00;68.10;;;;;;5011138;28;20053;-68
2022/05/16 07:43:17;;;;;;;4.65;2.30;;;19.00;67.80;;;;;;4998125;28;20034;-70
2022/05/16 07:45:43;;;;;;;4.60;2.50;;;19.10;67.90;;;;;;5008699;28;20029;-69
2022/05/16 07:48:12;;;;;;;6.45;2.78;;;19.20;67.80;;;;;;5008682;28;20026;-69
2022/05/16 07:50:38;;;;;;;7.85;3.30;;;19.30;67.70;;;;;;5024522;28;20380;-69
2022/05/16 07:53:11;;;;;;;6.90;2.17;;;19.40;67.70;;;;;;5008865;28;20088;-68
2022/05/16 07:55:39;;;;;;;4.47;2.45;;;19.50;67.50;;;;;;4993716;28;20045;-69
2022/05/16 07:58:05;;;;;;;4.45;2.15;;;19.60;67.10;;;;;;5009016;28;20079;-68
2022/05/16 08:00:31;;;;;;;5.95;2.60;;;19.60;67.10;;;;;;5025259;28;20033;-69
2022/05/16 08:02:56;;;;;;;7.15;2.60;;;19.70;66.90;;;;;;4996689;28;20521;-69
2022/05/16 08:05:23;;;;;;;6.70;2.40;;;19.80;67.40;;;;;;5021928;28;20151;-69
2022/05/16 08:10:36;;;;;;;6.88;2.90;;;20.00;66.00;;;;;;4996850;28;20053;-69
2022/05/16 08:13:04;;;;;;;3.65;2.30;;;20.10;65.40;;;;;;5005896;28;20779;-69
2022/05/16 08:15:31;;;;;;;9.90;2.35;;;20.10;65.00;;;;;;4991283;28;20042;-68
2022/05/16 08:17:57;;;;;;;5.93;2.50;;;20.20;65.50;;;;;;5008413;28;20030;-69
2022/05/16 08:20:23;;;;;;;5.80;2.80;;;20.30;65.00;;;;;;5003526;28;20075;-68
2022/05/16 08:22:49;;;;;;;3.90;2.20;;;20.30;65.30;;;;;;5008693;28;20049;-69
2022/05/16 08:25:14;;;;;;;5.60;2.33;;;20.40;65.30;;;;;;5012554;28;20485;-68
2022/05/16 08:27:41;;;;;;;3.63;2.45;;;20.50;65.40;;;;;;5015668;28;20025;-68
2022/05/16 08:30:07;;;;;;;4.38;2.30;;;20.50;64.50;;;;;;5029402;28;20170;-68
2022/05/16 08:32:33;;;;;;;6.88;2.40;;;20.50;63.80;;;;;;5021899;28;20465;-68
2022/05/16 08:35:01;;;;;;;6.88;2.20;;;20.60;63.60;;;;;;5030707;28;20053;-69
2022/05/16 08:40:12;;;;;;;3.53;2.13;;;20.70;64.10;;;;;;5011155;28;20080;-69
2022/05/16 08:42:54;;;;;;;7.38;2.67;;;20.90;63.60;;;;;;5016078;28;20796;-69
2022/05/16 08:45:33;;;;;;;3.75;2.15;;;20.90;63.00;;;;;;4999289;28;20034;-68
2022/05/16 08:48:11;;;;;;;4.65;2.88;;;21.00;63.00;;;;;;5009043;28;20041;-69
2022/05/16 08:50:50;;;;;;;5.75;2.58;;;21.00;62.70;;;;;;5017325;28;20030;-69
2022/05/16 08:53:23;;;;;;;7.25;2.67;;;21.10;62.40;;;;;;5012112;28;20030;-69
2022/05/16 08:55:53;;;;;;;5.03;2.38;;;21.20;62.20;;;;;;5031268;28;20044;-68
2022/05/16 08:58:33;;;;;;;7.43;2.58;;;21.20;62.00;;;;;;5000249;28;20478;-68
2022/05/16 09:01:05;;;;;;;4.80;2.53;;;21.30;61.90;;;;;;5030836;28;20029;-68
2022/05/16 09:03:55;;;;;;;6.28;2.58;;;21.30;61.00;;;;;;5009162;28;20367;-69
2022/05/16 09:06:25;;;;;;;5.53;2.35;;;21.30;60.70;;;;;;5000819;28;20417;-68
2022/05/16 09:09:04;;;;;;;8.30;2.78;;;21.40;61.00;;;;;;5017652;28;20045;-69
2022/05/16 09:11:50;;;;;;;6.30;2.95;;;21.50;60.90;;;;;;5016803;28;20405;-68
2022/05/16 09:14:34;;;;;;;6.60;2.10;;;21.60;60.80;;;;;;5009301;28;20041;-68
2022/05/16 09:17:08;;;;;;;6.83;2.20;;;21.70;61.30;;;;;;4998679;28;20426;-69
2022/05/16 09:20:24;;;;;;;6.40;2.63;;;21.80;61.00;;;;;;5013006;28;20297;-69
2022/05/16 09:23:18;;;;;;;7.65;2.22;;;21.90;60.60;;;;;;4995981;28;20381;-68
2022/05/16 09:25:52;;;;;;;3.92;2.10;;;21.90;60.50;;;;;;5010750;28;20041;-68
2022/05/16 09:28:37;;;;;;;5.40;2.60;;;22.00;59.50;;;;;;5012778;28;20367;-69
2022/05/16 09:31:17;;;;;;;8.05;2.47;;;22.10;59.40;;;;;;5008133;28;20096;-68
2022/05/16 09:33:48;;;;;;;5.55;2.20;;;22.20;58.90;;;;;;5002175;28;20390;-68
2022/05/16 09:36:18;;;;;;;6.95;3.00;;;22.30;58.90;;;;;;5003682;28;20034;-69
2022/05/16 09:38:46;;;;;;;7.32;2.45;;;22.30;58.50;;;;;;4996504;28;20453;-69
2022/05/16 09:41:39;;;;;;;5.35;2.42;;;22.40;58.30;;;;;;5025016;28;20598;-69
2022/05/16 09:44:14;;;;;;;3.50;2.03;;;22.40;57.20;;;;;;5010261;28;20513;-68
2022/05/16 09:46:43;;;;;;;5.13;2.33;;;22.40;56.90;;;;;;5012938;28;20033;-68
2022/05/16 09:49:19;;;;;;;3.58;2.53;;;22.40;56.00;;;;;;5008909;28;20496;-68
2022/05/16 09:51:51;;;;;;;4.50;2.83;;;22.40;56.20;;;;;;5007767;28;20497;-68
2022/05/16 09:54:32;;;;;;;3.28;1.80;;;22.50;56.60;;;;;;5018279;28;20520;-66
2022/05/16 09:57:04;;;;;;;5.15;2.03;;;22.50;56.40;;;;;;5029196;28;20084;-64
2022/05/16 09:59:45;;;;;;;6.07;2.28;;;22.60;55.40;;;;;;4995119;28;20469;-66
2022/05/16 10:02:31;;;;;;;3.33;1.88;;;22.60;54.80;;;;;;4993421;28;20540;-65
2022/05/16 10:05:00;;;;;;;9.25;1.95;;;22.70;54.70;;;;;;5032028;28;20627;-66
2022/05/16 10:07:44;;;;;;;4.97;2.20;;;22.80;54.60;;;;;;5032642;28;20029;-66
2022/05/16 10:10:13;;;;;;;;;;;22.80;53.30;;;;;;4995665;28;20491;-66
2022/05/16 10:12:39;;;;;;;4.55;1.73;;;22.80;55.00;;;;;;5000830;28;19915;-66
2022/05/16 10:15:06;;;;;;;3.72;1.85;;;22.90;55.30;;;;;;5010730;28;20038;-66
2022/05/16 10:17:36;;;;;;;5.72;1.75;;;23.00;54.30;;;;;;4999512;28;20022;-67
2022/05/16 10:20:07;;;;;;;3.70;1.55;;;23.10;52.70;;;;;;5004046;28;20030;-66
2022/05/16 10:22:34;;;;;;;3.88;1.60;;;23.10;53.00;;;;;;5003099;28;20030;-67
2022/05/16 10:25:01;;;;;;;2.63;1.75;;;23.20;54.10;;;;;;5018410;28;20025;-66
2022/05/16 10:27:31;;;;;;;7.72;1.90;;;23.30;54.20;;;;;;5010403;28;20034;-66
2022/05/16 10:30:02;;;;;;;4.25;2.00;;;23.40;54.30;;;;;;5013353;28;20054;-66
2022/05/16 10:35:26;;;;;;;3.88;2.05;;;23.50;52.40;;;;;;5025794;28;20057;-66
2022/05/16 10:37:54;;;;;;;4.68;1.75;;;23.50;52.60;;;;;;5014912;28;20034;-66
2022/05/16 10:40:31;;;;;;;3.15;1.60;;;23.60;51.90;;;;;;5016474;28;20109;-66
2022/05/16 10:43:25;;;;;;;3.63;1.90;;;23.70;52.00;;;;;;5027642;28;20047;-66
2022/05/16 10:45:57;;;;;;;4.43;1.70;;;23.70;50.90;;;;;;5004430;28;20037;-66
2022/05/16 10:48:39;;;;;;;8.30;2.50;;;23.70;51.50;;;;;;5011251;28;20041;-66
2022/05/16 10:51:10;;;;;;;3.78;1.67;;;23.70;51.70;;;;;;4991659;28;20105;-67
2022/05/16 10:53:58;;;;;;;4.75;2.20;;;23.70;50.90;;;;;;4992525;28;20068;-66
2022/05/16 10:56:40;;;;;;;3.10;1.98;;;23.70;50.80;;;;;;5005522;28;20045;-66
2022/05/16 10:59:23;;;;;;;5.10;2.03;;;23.70;50.50;;;;;;5031936;28;20034;-66
2022/05/16 11:02:23;;;;;;;4.65;2.38;;;23.70;50.30;;;;;;4998891;28;20049;-66
2022/05/16 11:05:26;;;;;;;3.05;1.77;;;23.60;51.10;;;;;;5012654;28;20026;-66
2022/05/16 11:08:10;;;;;;;5.32;2.28;;;23.70;50.90;;;;;;4991043;28;20046;-66
2022/05/16 11:10:41;;;;;;;5.65;2.28;;;23.70;49.90;;;;;;5005237;28;20036;-66
2022/05/16 11:13:35;;;;;;;4.63;2.00;;;23.70;49.90;;;;;;5008905;28;20030;-65
2022/05/16 11:16:10;;;;;;;4.88;1.80;;;23.70;49.50;;;;;;4992065;28;20099;-66
2022/05/16 11:18:51;;;;;;;5.15;2.38;;;23.80;49.20;;;;;;5013314;28;20040;-65
2022/05/16 11:21:34;;;;;;;3.25;1.88;;;23.80;49.50;;;;;;5010462;28;20493;-66
2022/05/16 11:24:02;;;;;;;5.13;2.08;;;23.80;49.70;;;;;;5021330;28;20144;-66
2022/05/16 11:26:51;;;;;;;5.43;1.90;;;23.80;49.30;;;;;;5031764;28;20113;-66
2022/05/16 11:29:41;;;;;;;4.05;2.08;;;23.90;49.20;;;;;;5020715;28;20030;-67
2022/05/16 11:32:30;;;;;;;5.07;2.20;;;24.00;49.40;;;;;;5028245;28;20033;-66
2022/05/16 11:35:22;;;;;;;8.07;1.98;;;24.00;49.60;;;;;;5006454;28;20046;-67
2022/05/16 11:37:51;;;;;;;5.57;2.47;;;24.10;49.10;;;;;;5011567;28;20569;-67
2022/05/16 11:40:26;;;;;;;3.55;1.90;;;24.10;48.60;;;;;;5010971;28;20038;-67
2022/05/16 11:43:24;;;;;;;5.13;2.20;;;24.20;47.40;;;;;;5011483;28;20407;-67
2022/05/16 11:46:27;;;;;;;2.17;1.65;;;24.20;48.10;;;;;;4997847;28;20045;-67
2022/05/16 11:49:09;;;;;;;3.55;2.30;;;24.20;48.20;;;;;;5011636;28;20029;-67
2022/05/16 11:52:02;;;;;;;5.70;2.17;;;24.30;48.00;;;;;;5004438;28;20061;-66
2022/05/16 11:54:33;;;;;;;3.58;2.50;;;24.30;47.80;;;;;;5009498;28;20117;-66
2022/05/16 12:02:50;;;;;;;5.33;2.73;;;24.50;47.60;;;;;;5012210;28;20031;-66
2022/05/16 12:05:21;;;;;;;3.60;2.30;;;24.60;47.80;;;;;;4991678;28;20027;-66
2022/05/16 12:07:56;;;;;;;4.32;2.38;;;24.60;47.60;;;;;;5008685;28;20053;-66
2022/05/16 12:10:25;;;;;;;3.30;2.30;;;24.80;47.00;;;;;;5016109;28;20093;-66
2022/05/16 12:13:12;;;;;;;4.20;2.40;;;24.90;47.00;;;;;;5028946;28;20040;-65
2022/05/16 12:15:38;;;;;;;4.40;2.47;;;24.90;47.10;;;;;;5014032;28;20041;-65
2022/05/16 12:18:07;;;;;;;5.07;2.42;;;25.00;46.40;;;;;;5025457;28;20041;-65
2022/05/16 12:20:58;;;;;;;3.53;2.65;;;25.10;47.00;;;;;;5031371;28;20039;-66
2022/05/16 12:23:49;;;;;;;5.90;3.50;;;25.20;46.90;;;;;;5034850;28;20053;-66
2022/05/16 12:26:26;;;;;;;6.07;3.78;;;25.20;45.70;;;;;;5032770;28;20091;-67
2022/05/16 12:29:08;;;;;;;6.50;4.03;;;25.30;46.20;;;;;;5034763;28;20032;-67
2022/05/16 12:31:45;;;;;;;7.57;3.67;;;25.30;45.70;;;;;;5010967;28;20035;-66
2022/05/16 12:34:40;;;;;;;4.65;3.90;;;25.40;46.30;;;;;;5003921;28;20033;-67
2022/05/16 12:37:11;;;;;;;10.38;4.25;;;25.50;46.00;;;;;;5016469;28;20022;-67
2022/05/16 12:40:03;;;;;;;6.88;3.75;;;25.60;44.90;;;;;;5014968;28;20037;-67
2022/05/16 12:42:56;;;;;;;6.88;4.03;;;25.60;44.90;;;;;;5012796;28;20042;-67
2022/05/16 12:45:44;;;;;;;5.72;3.72;;;25.80;44.60;;;;;;5008710;28;20076;-67
2022/05/16 12:48:53;;;;;;;5.18;3.67;;;25.80;43.90;;;;;;5002310;28;20022;-67
2022/05/16 12:51:46;;;;;;;5.97;3.75;;;25.90;44.60;;;;;;5027507;28;20040;-67
2022/05/16 12:54:38;;;;;;;6.10;4.43;;;26.00;44.70;;;;;;4994718;28;20106;-67
2022/05/16 12:57:21;;;;;;;7.40;4.05;;;26.10;43.50;;;;;;5034249;28;20029;-67
2022/05/16 13:00:12;;;;;;;7.60;4.43;;;26.00;43.70;;;;;;5029221;28;20487;-66
2022/05/16 13:03:01;;;;;;;6.32;4.35;;;26.10;43.00;;;;;;5004702;28;20034;-66
2022/05/16 13:05:39;;;;;;;8.20;4.38;;;26.10;43.30;;;;;;5022466;28;20493;-66
2022/05/16 13:08:39;;;;;;;6.80;4.07;;;26.20;43.50;;;;;;5015329;28;20070;-66
2022/05/16 13:11:25;;;;;;;5.15;3.60;;;26.30;43.20;;;;;;5007635;28;20030;-66
2022/05/16 13:14:19;;;;;;;6.28;4.18;;;26.40;42.80;;;;;;5025026;28;20030;-67
2022/05/16 13:17:04;;;;;;;5.20;3.78;;;26.40;42.90;;;;;;4994904;28;20050;-66
2022/05/16 13:19:36;;;;;;;5.80;3.95;;;26.60;42.90;;;;;;5013169;28;20026;-67
2022/05/16 13:22:17;;;;;;;8.82;5.10;;;26.60;42.70;;;;;;4994117;28;20030;-67
2022/05/16 13:24:43;;;;;;;6.40;3.83;;;26.80;42.40;;;;;;5026466;28;20029;-66
2022/05/16 13:30:05;;;;;;;5.25;3.17;;;26.90;41.80;;;;;;5013020;28;20034;-67
2022/05/16 13:32:31;;;;;;;8.02;4.10;;;26.90;42.30;;;;;;5005097;28;20053;-67
2022/05/16 13:35:03;;;;;;;5.70;3.47;;;26.90;41.40;;;;;;5012605;28;20573;-67
2022/05/16 13:37:43;;;;;;;5.35;3.25;;;27.00;41.10;;;;;;5011380;28;20026;-66
2022/05/16 13:40:19;;;;;;;7.20;3.80;;;27.00;40.70;;;;;;5014055;28;20041;-67
2022/05/16 13:42:45;;;;;;;6.13;3.60;;;26.90;40.70;;;;;;5005374;28;20037;-67